Time;durP1;ratioP1;P1;durP2;ratioP2;P2;SDS_P1;SDS_P2;PMS_P1;PMS_P2;Temp;Humidity;BMP_temperature;BMP_pressure;BME280_temperature;BME280_humidity;BME280_pressure;Samples;Min_cycle;Max_cycle;Signal;HPM_P1;HPM_P2
2022/08/17 00:01:24;;;;;;;9.17;8.27;;;;;;;26.46;43.75;94801.19;6184854;28;103141;-56
2022/08/17 00:04:29;;;;;;;9.80;9.00;;;;;;;26.68;43.69;94799.94;6176183;28;103045;-56
2022/08/17 00:07:32;;;;;;;10.37;9.33;;;;;;;26.86;43.03;94801.97;6167147;28;103240;-56
2022/08/17 00:10:35;;;;;;;9.83;9.03;;;;;;;26.95;43.40;94807.22;6184385;28;102789;-55
2022/08/17 00:13:44;;;;;;;9.10;8.30;;;;;;;26.95;43.03;94809.13;6181724;28;103094;-55
2022/08/17 00:16:50;;;;;;;12.70;11.70;;;;;;;26.94;43.65;94807.56;6184410;28;104197;-56
2022/08/17 00:19:59;;;;;;;11.50;10.57;;;;;;;26.96;43.35;94802.63;6164434;28;103142;-56
2022/08/17 00:23:05;;;;;;;10.70;9.80;;;;;;;26.81;43.77;94804.91;6186351;28;104371;-56
2022/08/17 00:26:09;;;;;;;10.37;9.37;;;;;;;26.65;43.81;94808.66;6184475;28;103248;-56
2022/08/17 00:29:14;;;;;;;11.77;10.87;;;;;;;26.50;44.29;94804.75;6176704;28;103205;-56
2022/08/17 00:32:22;;;;;;;9.27;8.40;;;;;;;26.32;44.66;94801.56;6184473;28;104146;-56
2022/08/17 00:35:46;;;;;;;10.47;8.70;;;;;;;26.13;44.65;94798.69;6178527;28;103601;-55
2022/08/17 00:38:49;;;;;;;11.57;10.67;;;;;;;26.06;45.04;94788.53;6174912;28;104209;-55
2022/08/17 00:41:52;;;;;;;9.80;8.90;;;;;;;25.97;45.30;94788.63;6174748;28;103109;-56
2022/08/17 00:44:57;;;;;;;9.60;8.80;;;;;;;26.02;45.60;94790.31;6183824;28;103354;-56
2022/08/17 00:48:00;;;;;;;10.10;9.27;;;;;;;25.95;45.15;94785.50;6184640;28;103168;-57
2022/08/17 00:51:09;;;;;;;9.33;8.43;;;;;;;26.21;44.57;94787.03;6185118;28;103547;-56
2022/08/17 00:54:16;;;;;;;10.43;9.50;;;;;;;26.41;44.64;94791.50;6174555;28;104058;-55
2022/08/17 00:57:24;;;;;;;9.67;8.37;;;;;;;26.47;44.76;94790.13;6185431;28;104136;-56
2022/08/17 01:00:33;;;;;;;7.47;6.97;;;;;;;26.44;43.84;94784.66;6182303;28;103045;-56
2022/08/17 01:03:37;;;;;;;7.67;7.00;;;;;;;26.43;43.89;94789.25;6173984;28;104408;-56
2022/08/17 01:06:42;;;;;;;8.47;7.50;;;;;;;26.73;43.44;94781.69;6179237;28;104869;-56
2022/08/17 01:09:45;;;;;;;6.90;6.40;;;;;;;26.66;43.75;94786.84;6184561;28;103063;-56
2022/08/17 01:12:49;;;;;;;7.17;6.67;;;;;;;26.59;43.67;94789.31;6185028;28;103220;-56
2022/08/17 01:15:58;;;;;;;8.00;7.20;;;;;;;26.61;43.55;94786.28;6173815;28;104060;-56
2022/08/17 01:19:05;;;;;;;6.70;6.10;;;;;;;26.37;43.60;94784.44;6183848;28;103252;-56
2022/08/17 01:22:17;;;;;;;6.13;5.10;;;;;;;26.29;43.98;94783.47;6183237;28;103285;-56
2022/08/17 01:25:22;;;;;;;7.70;7.07;;;;;;;26.13;44.46;94786.06;6168691;28;104297;-55
2022/08/17 01:28:29;;;;;;;7.53;5.63;;;;;;;25.96;44.33;94786.28;6175594;28;103949;-55
2022/08/17 01:31:56;;;;;;;6.90;5.53;;;;;;;25.85;44.47;94782.47;6183925;28;105683;-54
2022/08/17 01:35:00;;;;;;;5.97;5.47;;;;;;;25.86;44.80;94787.50;6180730;28;103195;-54
2022/08/17 01:38:05;;;;;;;7.30;5.80;;;;;;;25.85;44.52;94785.16;6167954;28;104581;-56
2022/08/17 01:41:11;;;;;;;6.20;5.53;;;;;;;25.99;44.66;94769.50;6181263;28;103296;-56
2022/08/17 01:44:16;;;;;;;5.67;5.20;;;;;;;26.12;44.30;94776.44;6181908;28;104626;-55
2022/08/17 01:47:19;;;;;;;5.90;5.30;;;;;;;26.26;43.87;94773.41;6183475;28;103456;-55
2022/08/17 01:50:26;;;;;;;5.80;5.40;;;;;;;26.45;43.29;94775.50;6172437;28;104503;-56
2022/08/17 01:53:36;;;;;;;6.67;5.37;;;;;;;26.52;42.82;94776.47;6181749;28;103229;-56
2022/08/17 01:56:43;;;;;;;5.77;4.93;;;;;;;26.58;42.88;94779.69;6181536;28;104370;-56
2022/08/17 01:59:49;;;;;;;5.50;5.10;;;;;;;26.58;42.88;94782.38;6168498;28;104304;-57
2022/08/17 02:02:52;;;;;;;5.60;5.20;;;;;;;26.47;43.02;94781.28;6176718;28;104210;-55
2022/08/17 02:05:55;;;;;;;5.77;5.27;;;;;;;26.26;42.96;94784.16;6182479;28;103187;-55
2022/08/17 02:09:00;;;;;;;5.70;5.10;;;;;;;26.13;43.90;94783.38;6182489;28;104260;-56
2022/08/17 02:12:07;;;;;;;6.30;5.70;;;;;;;26.15;43.40;94791.09;6171806;28;103089;-56
2022/08/17 02:15:30;;;;;;;6.57;5.33;;;;;;;26.02;43.60;94786.84;6175859;28;104934;-56
2022/08/17 02:18:34;;;;;;;6.87;6.00;;;;;;;25.99;43.79;94790.97;6181838;28;104327;-56
2022/08/17 02:21:38;;;;;;;6.53;5.40;;;;;;;25.88;43.86;94789.88;6182245;28;104299;-56
2022/08/17 02:24:43;;;;;;;6.20;5.70;;;;;;;25.78;44.13;94801.03;6171575;28;104463;-56
2022/08/17 02:28:03;;;;;;;7.67;5.80;;;;;;;25.66;44.31;94797.22;6180736;28;103027;-56
2022/08/17 02:31:09;;;;;;;6.33;5.83;;;;;;;25.62;44.42;94793.66;6180700;28;103294;-57
2022/08/17 02:34:12;;;;;;;8.10;6.30;;;;;;;25.67;44.46;94789.97;6174025;28;103300;-55
2022/08/17 02:37:17;;;;;;;12.37;11.13;;;;;;;25.49;44.90;94789.38;6180521;28;103381;-56
2022/08/17 02:40:21;;;;;;;7.70;7.00;;;;;;;25.60;44.68;94790.53;6186289;28;103164;-56
2022/08/17 02:43:38;;;;;;;6.90;6.30;;;;;;;25.75;44.35;94789.09;6184613;28;104048;-57
2022/08/17 02:46:41;;;;;;;9.73;8.83;;;;;;;25.88;44.41;94792.56;6166927;28;105233;-57
2022/08/17 02:49:44;;;;;;;11.80;10.70;;;;;;;25.98;44.28;94795.53;6186895;28;103191;-57
2022/08/17 02:52:58;;;;;;;11.90;10.80;;;;;;;26.10;43.99;94789.44;6183509;28;103089;-56
2022/08/17 02:56:06;;;;;;;9.70;8.70;;;;;;;26.15;43.75;94799.91;6185507;28;104064;-57
2022/08/17 02:59:09;;;;;;;17.23;15.30;;;;;;;25.96;43.67;94799.69;6176275;28;103844;-56
2022/08/17 03:02:12;;;;;;;11.40;10.33;;;;;;;25.84;44.48;94794.31;6183643;28;103837;-56
2022/08/17 03:05:20;;;;;;;10.43;9.40;;;;;;;25.76;44.23;94792.53;6184097;28;103213;-57
2022/08/17 03:08:24;;;;;;;14.90;13.50;;;;;;;25.68;44.70;94794.97;6175840;28;103249;-57
2022/08/17 03:11:28;;;;;;;12.10;11.00;;;;;;;25.71;44.17;94801.59;6185241;28;103432;-57
2022/08/17 03:14:32;;;;;;;12.80;11.70;;;;;;;25.62;44.92;94796.34;6184945;28;103131;-57
2022/08/17 03:17:40;;;;;;;17.17;15.70;;;;;;;25.63;44.77;94800.56;6183895;28;103131;-57
2022/08/17 03:20:43;;;;;;;16.57;15.03;;;;;;;25.60;44.65;94806.59;6174477;28;103318;-57
2022/08/17 03:23:47;;;;;;;15.13;13.83;;;;;;;25.74;44.52;94813.53;6185350;28;103429;-57
2022/08/17 03:26:57;;;;;;;13.27;11.97;;;;;;;25.78;44.08;94809.06;6184045;28;104529;-57
2022/08/17 03:30:02;;;;;;;11.17;9.90;;;;;;;25.97;43.70;94814.66;6184544;28;104281;-57
2022/08/17 03:33:08;;;;;;;9.70;9.00;;;;;;;26.10;43.75;94813.56;6173140;28;103044;-57
2022/08/17 03:36:12;;;;;;;9.93;9.00;;;;;;;26.13;42.92;94812.88;6176672;28;103196;-58
2022/08/17 03:39:15;;;;;;;9.90;8.90;;;;;;;26.28;42.94;94812.19;6181502;28;103311;-59
2022/08/17 03:42:23;;;;;;;15.93;14.50;;;;;;;26.40;42.56;94819.44;6177167;28;104186;-58
2022/08/17 03:59:00;;;;;;;9.27;8.50;;;;;;;26.35;42.26;94835.75;6182352;28;103149;-58
2022/08/17 04:02:07;;;;;;;8.43;7.23;;;;;;;25.84;43.17;94826.50;6172849;28;105951;-59
2022/08/17 04:05:11;;;;;;;7.93;7.13;;;;;;;25.54;43.69;94834.75;6169214;28;105552;-60
2022/08/17 04:08:14;;;;;;;16.57;14.87;;;;;;;25.56;44.10;94832.50;6181607;28;103867;-58
2022/08/17 04:11:17;;;;;;;14.53;8.60;;;;;;;25.24;44.97;94836.78;6181023;28;102988;-58
2022/08/17 04:14:21;;;;;;;10.43;8.80;;;;;;;25.34;45.02;94832.88;6182520;28;104369;-60
2022/08/17 04:17:27;;;;;;;9.23;8.33;;;;;;;25.06;45.44;94830.81;6172366;28;104064;-59
2022/08/17 04:20:30;;;;;;;11.13;10.00;;;;;;;24.73;46.20;94840.69;6175289;28;103140;-60
2022/08/17 04:23:35;;;;;;;10.50;8.80;;;;;;;24.95;45.56;94843.03;6181954;28;103926;-60
2022/08/17 04:26:38;;;;;;;10.53;9.20;;;;;;;25.51;44.83;94840.75;6183268;28;103141;-61
2022/08/17 04:29:57;;;;;;;9.10;8.20;;;;;;;25.87;44.12;94849.94;6172199;28;103026;-58
2022/08/17 04:33:04;;;;;;;11.70;8.00;;;;;;;26.12;43.59;94851.56;6179383;28;104242;-59
2022/08/17 04:36:09;;;;;;;8.70;8.00;;;;;;;26.27;44.00;94848.19;6184199;28;104041;-59
2022/08/17 04:39:13;;;;;;;10.40;7.60;;;;;;;26.38;43.23;94850.41;6176452;28;106020;-58
2022/08/17 04:42:16;;;;;;;14.50;6.97;;;;;;;26.45;43.22;94858.69;6183771;28;103223;-56
2022/08/17 04:45:20;;;;;;;14.00;7.80;;;;;;;26.50;43.35;94856.53;6183707;28;103106;-57
2022/08/17 04:48:25;;;;;;;11.93;9.30;;;;;;;26.55;43.05;94850.94;6184152;28;103121;-57
2022/08/17 04:51:40;;;;;;;14.73;13.40;;;;;;;26.66;43.23;94861.22;6174621;28;103991;-58
2022/08/17 04:54:58;;;;;;;14.80;11.67;;;;;;;26.54;43.18;94870.06;6184290;28;103105;-57
2022/08/17 04:58:01;;;;;;;17.90;10.87;;;;;;;26.32;43.97;94876.69;6184400;28;103140;-57
2022/08/17 05:01:06;;;;;;;15.07;10.60;;;;;;;26.28;44.00;94879.25;6184334;28;103401;-56
2022/08/17 05:04:12;;;;;;;11.43;9.47;;;;;;;26.12;44.79;94869.53;6176189;28;105145;-59
2022/08/17 05:07:35;;;;;;;16.50;11.80;;;;;;;25.79;45.13;94878.44;6185394;28;102855;-57
2022/08/17 05:10:38;;;;;;;18.13;15.03;;;;;;;25.76;45.93;94872.97;6180142;28;103104;-58
2022/08/17 05:13:48;;;;;;;18.23;16.30;;;;;;;25.69;45.80;94871.59;6149810;28;103855;-60
2022/08/17 05:16:53;;;;;;;19.13;15.70;;;;;;;25.73;46.33;94868.28;6158632;28;103970;-56
2022/08/17 05:19:56;;;;;;;19.30;16.10;;;;;;;25.78;46.10;94878.78;6159411;28;103221;-60
2022/08/17 05:23:03;;;;;;;18.63;15.70;;;;;;;25.90;45.84;94879.56;6160594;28;104397;-61
2022/08/17 05:26:06;;;;;;;17.23;13.47;;;;;;;25.94;46.13;94885.03;6149289;28;103323;-59
2022/08/17 05:29:13;;;;;;;11.70;10.50;;;;;;;25.94;45.69;94885.81;6159829;28;102987;-62
2022/08/17 05:32:21;;;;;;;11.50;9.40;;;;;;;25.93;45.71;94891.53;6159970;28;104304;-59
2022/08/17 05:35:45;;;;;;;11.60;10.40;;;;;;;25.89;45.89;94885.28;6154850;28;104442;-58
2022/08/17 05:38:49;;;;;;;13.97;12.53;;;;;;;26.24;45.77;94885.66;6155052;28;103111;-60
2022/08/17 05:41:52;;;;;;;20.63;18.73;;;;;;;26.43;45.35;94885.84;6159069;28;103310;-60
2022/08/17 05:44:57;;;;;;;17.20;15.60;;;;;;;26.42;45.51;94886.97;6159688;28;104198;-60
2022/08/17 05:48:02;;;;;;;20.23;15.43;;;;;;;26.41;44.86;94892.69;6148191;28;103267;-55
2022/08/17 05:51:15;;;;;;;18.70;16.03;;;;;;;26.36;46.09;94882.16;6159843;28;103055;-58
2022/08/17 05:54:32;;;;;;;15.57;12.60;;;;;;;26.30;46.11;94880.81;6178400;28;104090;-57
2022/08/17 05:57:45;;;;;;;17.33;15.60;;;;;;;26.18;46.57;94879.72;6183695;28;103440;-57
2022/08/17 06:01:02;;;;;;;17.07;15.47;;;;;;;26.13;46.38;94885.31;6175474;28;104027;-57
2022/08/17 06:04:18;;;;;;;16.30;13.00;;;;;;;26.10;46.16;94885.97;6183687;28;104049;-57
2022/08/17 06:07:32;;;;;;;12.53;10.93;;;;;;;26.03;46.26;94885.72;6184154;28;104322;-57
2022/08/17 06:10:45;;;;;;;13.23;12.13;;;;;;;25.95;46.97;94881.25;6173720;28;103068;-57
2022/08/17 06:14:03;;;;;;;11.07;9.60;;;;;;;25.94;46.51;94879.69;6188457;28;104134;-58
2022/08/17 06:17:12;;;;;;;11.57;9.00;;;;;;;26.05;46.53;94883.53;6187203;28;103353;-58
2022/08/17 06:20:17;;;;;;;12.50;9.70;;;;;;;26.30;46.50;94880.81;6186244;28;103064;-57
2022/08/17 06:23:26;;;;;;;15.53;10.50;;;;;;;26.54;45.72;94880.78;6176774;28;104017;-58
2022/08/17 06:26:33;;;;;;;14.50;10.43;;;;;;;26.68;45.24;94877.78;6187554;28;106362;-58
2022/08/17 06:29:53;;;;;;;12.30;9.10;;;;;;;26.84;44.64;94884.00;6187892;28;103322;-58
2022/08/17 06:32:59;;;;;;;10.83;9.73;;;;;;;26.94;44.73;94883.53;6177543;28;105521;-58
2022/08/17 06:36:31;;;;;;;10.43;8.43;;;;;;;27.00;44.11;94887.53;6187641;28;103170;-58
2022/08/17 06:39:46;;;;;;;10.43;9.37;;;;;;;27.05;44.84;94883.81;6187672;28;103136;-58
2022/08/17 06:42:58;;;;;;;11.47;9.60;;;;;;;27.10;43.98;94884.38;6186839;28;103131;-57
2022/08/17 06:46:13;;;;;;;8.60;7.77;;;;;;;27.04;44.89;94879.56;6176931;28;103532;-60
2022/08/17 06:49:24;;;;;;;12.67;8.90;;;;;;;26.94;44.27;94877.38;6187748;28;103181;-58
2022/08/17 06:52:33;;;;;;;11.47;8.80;;;;;;;26.85;44.97;94877.50;6186670;28;103581;-61
2022/08/17 06:56:04;;;;;;;14.73;8.33;;;;;;;26.75;44.93;94872.63;6175950;28;103106;-59
2022/08/17 06:59:13;;;;;;;10.10;8.30;;;;;;;26.71;45.37;94879.78;6187439;28;103476;-59
2022/08/17 07:02:23;;;;;;;14.13;9.20;;;;;;;26.63;45.07;94876.13;6186703;28;103182;-57
2022/08/17 07:05:51;;;;;;;10.10;8.30;;;;;;;26.54;44.89;94881.56;6186333;28;102950;-58
2022/08/17 07:09:01;;;;;;;15.70;9.73;;;;;;;26.66;44.77;94883.50;6176356;28;103463;-57
2022/08/17 07:12:13;;;;;;;14.00;8.70;;;;;;;26.81;43.98;94873.94;6185853;28;102891;-58
2022/08/17 07:15:22;;;;;;;10.87;8.40;;;;;;;27.00;43.78;94876.00;6187373;28;102931;-58
2022/08/17 07:18:31;;;;;;;9.33;8.30;;;;;;;27.12;43.60;94873.28;6174802;28;103676;-57
2022/08/17 07:21:44;;;;;;;14.00;8.73;;;;;;;27.17;43.62;94875.72;6184393;28;103117;-60
2022/08/17 07:24:53;;;;;;;10.43;8.13;;;;;;;27.21;42.78;94876.59;6182548;28;104214;-58
2022/08/17 07:27:59;;;;;;;9.67;8.07;;;;;;;27.18;43.56;94875.38;6184737;28;104242;-58
2022/08/17 07:31:04;;;;;;;9.00;7.63;;;;;;;27.28;42.37;94868.00;6173692;28;103275;-56
2022/08/17 07:34:13;;;;;;;8.77;7.07;;;;;;;27.27;42.92;94872.59;6185908;28;104180;-57
2022/08/17 07:37:19;;;;;;;8.83;7.80;;;;;;;27.26;43.05;94868.34;6186204;28;104373;-57
2022/08/17 07:40:30;;;;;;;9.20;7.73;;;;;;;27.14;42.82;94871.81;6180913;28;104329;-58
2022/08/17 07:43:36;;;;;;;10.07;7.87;;;;;;;26.94;43.42;94869.31;6180356;28;102982;-58
2022/08/17 07:50:26;;;;;;;10.23;7.57;;;;;;;26.68;43.92;94864.34;6184277;28;103144;-60
2022/08/17 07:53:30;;;;;;;8.23;7.23;;;;;;;26.69;43.83;94864.00;6174106;28;104615;-58
2022/08/17 07:56:43;;;;;;;8.17;7.47;;;;;;;26.61;44.05;94862.22;6183312;28;104132;-58
2022/08/17 08:00:14;;;;;;;8.20;6.70;;;;;;;26.54;44.01;94856.63;6184186;28;104245;-58
2022/08/17 08:03:25;;;;;;;7.43;6.73;;;;;;;26.51;43.83;94852.72;6178992;28;103253;-57
2022/08/17 08:06:31;;;;;;;10.63;7.83;;;;;;;26.45;43.62;94854.09;6180910;28;103038;-58
2022/08/17 08:09:41;;;;;;;8.03;7.33;;;;;;;26.56;43.51;94851.72;6185328;28;103164;-57
2022/08/17 08:12:47;;;;;;;8.40;7.60;;;;;;;26.78;43.45;94848.56;6186379;28;104191;-57
2022/08/17 08:16:12;;;;;;;11.50;7.27;;;;;;;26.93;42.97;94854.34;6174615;28;102834;-58
2022/08/17 08:19:15;;;;;;;8.40;7.67;;;;;;;27.08;42.97;94849.03;6186462;28;104184;-58
2022/08/17 08:22:30;;;;;;;9.37;8.37;;;;;;;27.28;42.05;94849.19;6185624;28;103053;-57
2022/08/17 08:25:46;;;;;;;11.20;7.90;;;;;;;27.31;41.54;94851.94;6185027;28;103436;-57
2022/08/17 08:29:08;;;;;;;9.37;8.67;;;;;;;27.35;41.59;94854.72;6179111;28;103063;-57
2022/08/17 08:32:19;;;;;;;9.50;8.50;;;;;;;27.40;40.86;94841.84;6185494;28;102996;-57
2022/08/17 08:35:29;;;;;;;9.63;8.77;;;;;;;27.43;41.17;94840.38;6185360;28;103652;-57
2022/08/17 08:38:44;;;;;;;8.50;7.70;;;;;;;27.55;40.76;94839.50;6175525;28;104141;-57
2022/08/17 08:41:57;;;;;;;8.97;8.20;;;;;;;27.55;41.08;94834.91;6185207;28;103073;-57
2022/08/17 08:45:12;;;;;;;8.07;7.37;;;;;;;27.50;40.78;94831.69;6185126;28;104212;-58
2022/08/17 08:48:38;;;;;;;7.40;6.77;;;;;;;27.56;41.21;94838.41;6184452;28;104292;-58
2022/08/17 08:52:01;;;;;;;9.37;7.80;;;;;;;27.48;40.88;94832.03;6173879;28;103240;-59
2022/08/17 08:55:11;;;;;;;14.67;8.10;;;;;;;27.44;40.43;94825.78;6173542;28;104448;-58
2022/08/17 08:58:18;;;;;;;7.70;6.77;;;;;;;27.68;40.67;94833.69;6183516;28;103929;-58
2022/08/17 09:01:52;;;;;;;8.60;7.70;;;;;;;27.61;41.53;94830.06;6173934;28;103099;-61
2022/08/17 09:05:11;;;;;;;7.83;7.23;;;;;;;27.28;41.83;94833.06;6184787;28;103114;-58
2022/08/17 09:08:23;;;;;;;7.83;7.23;;;;;;;26.70;42.41;94817.25;6184476;28;103084;-57
2022/08/17 09:11:34;;;;;;;11.40;6.57;;;;;;;26.44;41.71;94817.66;6179635;28;103327;-57
2022/08/17 09:15:03;;;;;;;8.30;7.50;;;;;;;26.13;42.63;94823.63;6184421;28;103273;-59
2022/08/17 09:18:19;;;;;;;7.50;6.83;;;;;;;26.02;42.72;94822.50;6185042;28;104101;-60
2022/08/17 09:21:52;;;;;;;7.43;6.60;;;;;;;25.93;42.63;94819.91;6182095;28;103548;-58
2022/08/17 09:25:03;;;;;;;7.20;6.47;;;;;;;26.26;42.82;94827.06;6148562;28;103355;-59
2022/08/17 09:28:12;;;;;;;7.20;6.50;;;;;;;26.61;42.61;94821.97;6171752;28;103137;-57
2022/08/17 09:31:20;;;;;;;7.10;6.40;;;;;;;26.86;42.04;94822.69;6184420;28;103493;-58
2022/08/17 09:34:33;;;;;;;7.10;6.50;;;;;;;27.08;42.01;94821.38;6177578;28;103138;-57
2022/08/17 09:37:47;;;;;;;6.83;5.47;;;;;;;27.29;41.78;94819.28;6183696;28;103273;-58
2022/08/17 09:40:56;;;;;;;6.60;6.10;;;;;;;27.45;41.13;94824.66;6184525;28;104137;-58
2022/08/17 09:44:05;;;;;;;7.23;6.57;;;;;;;27.54;41.38;94819.13;6183070;28;103157;-59
2022/08/17 09:47:30;;;;;;;6.30;5.50;;;;;;;27.63;41.48;94822.44;6173433;28;104017;-59
2022/08/17 09:50:41;;;;;;;6.23;5.47;;;;;;;27.71;41.14;94822.25;6184452;28;103588;-59
2022/08/17 09:54:12;;;;;;;5.97;5.40;;;;;;;27.76;41.08;94816.63;6183877;28;102720;-57
2022/08/17 09:57:49;;;;;;;9.67;5.83;;;;;;;27.80;40.25;94811.31;6174053;28;102749;-58
2022/08/17 10:01:00;;;;;;;12.20;6.00;;;;;;;27.79;39.80;94809.75;6183918;28;104288;-58
2022/08/17 10:04:21;;;;;;;10.63;4.80;;;;;;;27.82;39.80;94808.28;6184079;28;103841;-57
2022/08/17 10:07:37;;;;;;;9.03;5.27;;;;;;;27.80;39.38;94808.63;6183010;28;103618;-58
2022/08/17 10:10:58;;;;;;;7.03;5.00;;;;;;;27.66;39.64;94805.59;6173188;28;104155;-58
2022/08/17 10:14:10;;;;;;;4.83;4.43;;;;;;;27.52;39.94;94797.19;6183322;28;103973;-59
2022/08/17 10:17:42;;;;;;;8.27;5.20;;;;;;;27.37;39.31;94794.13;6183423;28;102755;-58
2022/08/17 10:26:11;;;;;;;6.13;5.20;;;;;;;27.32;39.35;94796.31;6171919;28;103080;-57
2022/08/17 10:28:09;;;;;;;5.10;4.70;;;;;;;27.16;39.60;94791.66;6183698;28;103086;-58
2022/08/17 10:31:27;;;;;;;8.07;5.00;;;;;;;27.18;40.04;94791.31;6174077;28;103896;-58
2022/08/17 10:35:10;;;;;;;5.33;4.83;;;;;;;27.32;39.10;94785.56;6183750;28;104126;-58
2022/08/17 10:38:33;;;;;;;6.00;4.70;;;;;;;27.42;39.15;94780.47;6181752;28;104352;-58
2022/08/17 10:41:42;;;;;;;5.20;4.73;;;;;;;27.56;38.71;94779.25;6175089;28;103328;-58
2022/08/17 10:44:55;;;;;;;5.93;5.20;;;;;;;27.67;38.79;94783.72;6154578;28;103782;-58
2022/08/17 10:48:02;;;;;;;6.33;5.03;;;;;;;27.73;38.13;94784.28;6178305;28;104526;-57
2022/08/17 10:51:11;;;;;;;7.23;5.17;;;;;;;27.74;38.33;94777.75;6182592;28;103420;-58
2022/08/17 10:54:48;;;;;;;7.60;5.17;;;;;;;27.81;37.15;94774.44;6174182;28;102948;-58
2022/08/17 10:58:19;;;;;;;5.30;4.80;;;;;;;27.82;37.23;94773.31;6185436;28;104135;-58
2022/08/17 11:01:57;;;;;;;5.87;5.30;;;;;;;27.77;37.40;94774.38;6187760;28;103324;-58
2022/08/17 11:05:32;;;;;;;5.57;4.97;;;;;;;27.58;38.22;94766.25;6179225;28;103145;-59
2022/08/17 11:09:17;;;;;;;6.10;5.10;;;;;;;27.41;38.01;94765.47;6176523;28;104129;-57
2022/08/17 11:12:36;;;;;;;5.90;5.20;;;;;;;27.44;37.04;94759.38;6186774;28;103126;-58
2022/08/17 11:15:54;;;;;;;6.50;5.23;;;;;;;27.44;37.66;94762.06;6185540;28;103022;-58
2022/08/17 11:19:30;;;;;;;8.00;5.20;;;;;;;27.41;36.73;94757.41;6180437;28;103170;-59
2022/08/17 11:23:12;;;;;;;6.47;4.63;;;;;;;27.38;37.32;94746.53;6185354;28;103330;-58
2022/08/17 11:26:24;;;;;;;5.33;4.90;;;;;;;27.51;36.29;94758.75;6186511;28;103182;-58
2022/08/17 11:29:35;;;;;;;5.90;5.40;;;;;;;27.64;37.56;94746.03;6161715;28;104138;-58
2022/08/17 11:32:43;;;;;;;5.90;5.30;;;;;;;27.66;37.25;94751.81;6175994;28;104050;-57
2022/08/17 11:36:05;;;;;;;5.87;5.37;;;;;;;27.73;38.07;94755.47;6179447;28;103585;-58
2022/08/17 11:39:27;;;;;;;5.93;5.50;;;;;;;27.82;37.86;94760.66;6177940;28;102942;-58
2022/08/17 11:42:50;;;;;;;6.50;6.00;;;;;;;27.89;38.26;94768.94;6184619;28;103579;-59
2022/08/17 11:46:16;;;;;;;6.87;6.30;;;;;;;27.91;38.57;94769.34;6185113;28;103028;-58
2022/08/17 11:53:07;;;;;;;6.77;6.17;;;;;;;28.10;38.72;94781.28;6176981;28;103089;-58
2022/08/17 11:56:29;;;;;;;7.20;6.60;;;;;;;28.05;39.12;94785.78;6185334;28;102968;-58
2022/08/17 11:59:58;;;;;;;5.93;5.33;;;;;;;27.87;39.44;94790.00;6171325;28;104214;-58
2022/08/17 12:03:23;;;;;;;6.23;5.73;;;;;;;27.72;40.11;94783.50;6171650;28;103629;-58
2022/08/17 12:06:55;;;;;;;7.53;6.10;;;;;;;27.60;40.60;94790.88;6185379;28;103041;-58
2022/08/17 12:10:00;;;;;;;6.93;6.33;;;;;;;27.52;40.90;94795.28;6167495;28;103031;-58
2022/08/17 12:13:10;;;;;;;6.90;6.30;;;;;;;27.56;41.04;94803.44;6181124;28;104433;-58
2022/08/17 12:16:15;;;;;;;7.57;6.60;;;;;;;27.48;40.69;94799.78;6180552;28;103368;-58
2022/08/17 12:19:21;;;;;;;6.40;5.80;;;;;;;27.40;41.40;94796.16;6184473;28;104271;-60
2022/08/17 12:22:31;;;;;;;7.20;6.50;;;;;;;27.52;41.10;94795.28;6183871;28;104522;-59
2022/08/17 12:25:39;;;;;;;8.07;7.43;;;;;;;27.66;41.00;94794.84;6175390;28;103914;-59
2022/08/17 12:28:46;;;;;;;7.40;6.80;;;;;;;27.76;41.50;94797.00;6183354;28;103868;-58
2022/08/17 12:31:51;;;;;;;7.33;6.70;;;;;;;27.87;41.29;94792.69;6184352;28;104882;-60
2022/08/17 12:34:54;;;;;;;8.30;7.50;;;;;;;27.95;41.22;94794.41;6179244;28;103470;-58
2022/08/17 12:38:00;;;;;;;9.30;7.40;;;;;;;28.02;40.94;94785.72;6174566;28;105192;-58
2022/08/17 12:44:25;;;;;;;7.27;6.70;;;;;;;28.03;40.49;94777.28;6182787;28;103682;-56
2022/08/17 12:47:30;;;;;;;7.73;7.03;;;;;;;28.06;40.49;94775.84;6177809;28;104304;-57
2022/08/17 12:50:35;;;;;;;7.00;6.50;;;;;;;28.07;40.22;94772.03;6171837;28;103405;-58
2022/08/17 12:56:45;;;;;;;8.20;6.87;;;;;;;27.88;40.34;94770.03;6077988;22;104078;-58
2022/08/17 12:59:58;;;;;;;7.90;7.10;;;;;;;27.83;40.78;94762.22;6185871;23;104725;-57
2022/08/17 13:03:04;;;;;;;7.47;6.77;;;;;;;27.75;41.08;94763.97;6182724;28;103261;-58
2022/08/17 13:06:10;;;;;;;7.67;6.63;;;;;;;27.72;40.90;94761.97;6182230;28;103641;-57
2022/08/17 13:09:20;;;;;;;7.57;6.77;;;;;;;27.71;40.54;94756.94;6188088;28;104420;-58
2022/08/17 13:12:28;;;;;;;7.30;6.80;;;;;;;27.69;40.51;94751.91;6171183;28;103463;-58
2022/08/17 13:15:37;;;;;;;7.07;6.57;;;;;;;27.70;40.99;94758.06;6170837;28;103227;-57
2022/08/17 13:18:49;;;;;;;8.00;6.30;;;;;;;27.90;40.57;94756.25;6183396;28;104486;-58
2022/08/17 13:21:55;;;;;;;7.27;6.67;;;;;;;28.02;39.96;94756.13;6172154;28;103846;-57
2022/08/17 13:25:04;;;;;;;6.70;6.20;;;;;;;28.16;39.38;94761.03;6170588;28;103268;-58
2022/08/17 13:28:18;;;;;;;6.67;6.17;;;;;;;28.21;38.99;94763.44;6182234;28;103357;-58
2022/08/17 13:31:42;;;;;;;7.10;6.50;;;;;;;28.29;39.56;94757.09;6171096;28;104086;-58
2022/08/17 13:35:01;;;;;;;7.17;6.57;;;;;;;28.32;38.41;94762.56;6169502;28;103121;-58
2022/08/17 13:38:39;;;;;;;6.77;6.27;;;;;;;28.36;38.70;94763.41;6181821;28;102989;-59
2022/08/17 13:41:45;;;;;;;5.83;5.10;;;;;;;28.46;38.36;94758.63;6179513;28;103596;-59
2022/08/17 13:44:48;;;;;;;6.63;6.03;;;;;;;28.54;38.44;94757.63;6170503;28;104390;-59
2022/08/17 13:48:05;;;;;;;7.27;6.47;;;;;;;28.45;38.90;94755.13;6180362;28;104474;-58
2022/08/17 13:51:25;;;;;;;6.87;6.13;;;;;;;28.31;38.72;94754.84;6178026;28;104075;-60
2022/08/17 13:54:31;;;;;;;12.60;6.07;;;;;;;28.27;39.63;94759.38;6176847;28;103685;-56
2022/08/17 13:57:36;;;;;;;5.87;5.37;;;;;;;28.19;39.92;94755.72;6169281;28;104194;-58
2022/08/17 14:00:39;;;;;;;6.00;5.60;;;;;;;28.08;39.60;94748.59;6181035;28;103347;-59
2022/08/17 14:03:42;;;;;;;6.50;6.10;;;;;;;28.00;38.88;94743.03;6180619;28;103689;-59
2022/08/17 14:06:52;;;;;;;7.53;6.00;;;;;;;27.90;39.04;94748.19;6176105;28;104097;-58
2022/08/17 14:10:00;;;;;;;7.10;5.80;;;;;;;27.95;39.57;94746.00;6165917;28;104118;-55
2022/08/17 14:13:05;;;;;;;6.50;5.90;;;;;;;28.13;38.28;94743.69;6181662;28;104118;-58
2022/08/17 14:16:08;;;;;;;6.27;5.70;;;;;;;28.28;38.94;94736.72;6176691;28;103591;-58
2022/08/17 14:19:12;;;;;;;7.43;6.73;;;;;;;28.36;38.88;94735.72;6167363;28;104242;-58
2022/08/17 14:22:21;;;;;;;7.43;6.30;;;;;;;28.47;38.65;94731.34;6175047;28;104723;-57
2022/08/17 14:25:27;;;;;;;7.50;6.43;;;;;;;28.57;39.88;94736.19;6176050;28;103100;-57
2022/08/17 14:28:31;;;;;;;8.90;6.70;;;;;;;28.62;39.74;94737.81;6165757;28;104260;-58
2022/08/17 14:31:38;;;;;;;8.20;6.23;;;;;;;28.70;40.32;94744.88;6177695;28;103009;-57
2022/08/17 14:34:44;;;;;;;7.37;6.80;;;;;;;28.72;40.09;94733.75;6179969;28;103330;-57
2022/08/17 14:37:47;;;;;;;6.80;6.20;;;;;;;28.69;40.24;94723.69;6185814;28;104254;-57
2022/08/17 14:40:50;;;;;;;7.07;6.47;;;;;;;28.67;39.23;94732.13;6161606;28;104545;-58
2022/08/17 14:43:55;;;;;;;7.37;6.77;;;;;;;28.59;39.78;94739.31;6182278;28;103041;-58
2022/08/17 14:46:59;;;;;;;8.30;7.60;;;;;;;28.47;39.29;94730.59;6182266;28;103540;-58
2022/08/17 14:50:03;;;;;;;7.53;6.90;;;;;;;28.39;39.40;94734.22;6179582;28;103044;-58
2022/08/17 14:53:13;;;;;;;7.47;6.93;;;;;;;28.31;40.17;94734.09;6174907;28;104344;-58
2022/08/17 14:56:16;;;;;;;7.90;7.20;;;;;;;28.26;39.27;94730.91;6174218;28;103458;-58
2022/08/17 14:59:21;;;;;;;7.70;7.10;;;;;;;28.13;39.11;94727.56;6180229;28;104328;-57
2022/08/17 15:02:27;;;;;;;7.73;7.03;;;;;;;28.06;38.63;94732.78;6165768;28;103215;-59
2022/08/17 15:05:35;;;;;;;7.17;6.53;;;;;;;28.13;38.72;94726.78;6178488;28;104243;-58
2022/08/17 15:08:38;;;;;;;7.97;7.33;;;;;;;28.21;38.18;94733.84;6182026;28;103163;-58
2022/08/17 15:11:41;;;;;;;7.07;6.57;;;;;;;28.27;38.55;94745.91;6175017;28;103349;-58
2022/08/17 15:14:46;;;;;;;7.23;6.63;;;;;;;28.35;38.34;94734.94;6170228;28;103375;-59